createdAt,value
2023-05-01T00:04:48.498Z,98577.19
2023-05-01T00:09:51.995Z,98587.47
2023-05-01T00:14:55.212Z,98603.72
2023-05-01T00:19:58.228Z,98606.13
2023-05-01T00:25:01.207Z,98598.38
2023-05-01T00:30:04.196Z,98603.53
2023-05-01T00:35:08.237Z,98574.44
2023-05-01T00:40:11.465Z,98585.72
2023-05-01T00:45:14.614Z,98584.75
2023-05-01T00:50:17.405Z,98588.91
2023-05-01T00:55:20.652Z,98566.66
2023-05-01T01:00:24.937Z,98582.03
2023-05-01T01:05:33.046Z,98573.72
2023-05-01T01:10:51.682Z,98621.50
2023-05-01T01:16:03.986Z,98621.38
2023-05-01T01:21:15.760Z,98625.47
2023-05-01T01:26:48.358Z,98606.69
2023-05-01T01:31:56.817Z,98598.16
2023-05-01T01:37:05.114Z,98565.66
2023-05-01T01:42:11.429Z,98561.66
2023-05-01T01:47:15.554Z,98564.25
2023-05-01T01:52:20.645Z,98546.81
2023-05-01T01:57:25.190Z,98547.81
2023-05-01T02:02:31.323Z,98539.44
2023-05-01T02:07:37.716Z,98563.22
2023-05-01T02:12:42.836Z,98561.44
2023-05-01T02:17:45.887Z,98560.41
2023-05-01T02:22:50.815Z,98557.81
2023-05-01T02:27:57.720Z,98545.06
2023-05-01T02:33:00.485Z,98544.13
2023-05-01T02:38:03.252Z,98579.88
2023-05-01T02:43:11.231Z,98591.66
2023-05-01T02:48:20.553Z,98608.31
2023-05-01T02:53:24.211Z,98606.44
2023-05-01T02:58:32.989Z,98561.31
2023-05-01T03:03:35.733Z,98620.94
2023-05-01T03:08:38.458Z,98607.03
2023-05-01T03:13:41.225Z,98594.38
2023-05-01T03:18:43.968Z,98599.47
2023-05-01T03:23:47.026Z,98584.75
2023-05-01T03:28:49.769Z,98586.44
2023-05-01T03:33:52.685Z,98599.31
2023-05-01T03:38:55.484Z,98603.56
2023-05-01T03:44:30.057Z,98612.84
2023-05-01T03:49:32.842Z,98613.84
2023-05-01T03:54:35.711Z,98613.56
2023-05-01T03:59:54.775Z,98600.69
2023-05-01T04:04:57.754Z,98609.78
2023-05-01T04:10:01.021Z,98612.16
2023-05-01T04:15:04.915Z,98616.97
2023-05-01T04:20:11.049Z,98615.16
2023-05-01T04:25:14.605Z,98624.13
2023-05-01T04:30:17.814Z,98618.06
2023-05-01T04:35:20.714Z,98616.25
2023-05-01T04:40:23.329Z,98626.34
2023-05-01T04:45:26.866Z,98622.97
2023-05-01T04:50:30.547Z,98641.94
2023-05-01T04:55:33.560Z,98635.06
2023-05-01T05:00:40.579Z,98643.13
2023-05-01T05:05:49.349Z,98645.03
2023-05-01T05:10:57.659Z,98640.00
2023-05-01T05:16:23.569Z,98632.22
2023-05-01T05:21:26.810Z,98637.84
2023-05-01T05:26:31.683Z,98632.25
2023-05-01T05:31:38.011Z,98652.44
2023-05-01T05:36:41.084Z,98646.13
2023-05-01T05:41:44.292Z,98620.41
2023-05-01T05:46:47.796Z,98645.69
2023-05-01T05:52:02.741Z,98648.13
2023-05-01T05:57:05.490Z,98661.06
2023-05-01T06:02:09.751Z,98679.22
2023-05-01T06:07:12.463Z,98685.69
2023-05-01T06:12:15.230Z,98678.09
2023-05-01T06:17:18.235Z,98690.53
2023-05-01T06:22:21.396Z,98680.84
2023-05-01T06:27:36.283Z,98684.69
2023-05-01T06:32:39.025Z,98715.47
2023-05-01T06:37:41.842Z,98706.69
2023-05-01T06:42:45.930Z,98711.13
2023-05-01T06:47:48.594Z,98724.94
2023-05-01T06:52:51.286Z,98711.22
2023-05-01T06:57:54.016Z,98709.66
2023-05-01T07:02:57.253Z,98718.34
2023-05-01T07:08:01.970Z,98716.22
2023-05-01T07:13:04.891Z,98711.38
2023-05-01T07:18:10.296Z,98705.34
2023-05-01T07:23:13.026Z,98732.03
2023-05-01T07:28:18.222Z,98722.59
2023-05-01T07:33:21.176Z,98734.66
2023-05-01T07:38:23.926Z,98743.03
2023-05-01T07:43:26.597Z,98744.38
2023-05-01T07:48:29.553Z,98761.63
2023-05-01T07:53:33.174Z,98754.41
2023-05-01T07:58:37.284Z,98763.03
2023-05-01T08:03:40.125Z,98779.31
2023-05-01T08:08:43.062Z,98799.09
2023-05-01T08:13:46.327Z,98791.50
2023-05-01T08:18:49.090Z,98808.00
2023-05-01T08:23:52.075Z,98803.34
2023-05-01T08:28:54.657Z,98828.63
2023-05-01T08:33:57.851Z,98822.06
2023-05-01T08:39:00.638Z,98836.44
2023-05-01T08:44:05.031Z,98841.75
2023-05-01T08:49:11.626Z,98852.34
2023-05-01T08:54:15.801Z,98860.44
2023-05-01T08:59:19.480Z,98830.34
2023-05-01T09:04:22.750Z,98852.75
2023-05-01T09:09:25.597Z,98868.34
2023-05-01T09:14:29.363Z,98861.47
2023-05-01T09:19:32.497Z,98877.88
2023-05-01T09:24:35.280Z,98881.34
2023-05-01T09:29:42.506Z,98883.00
2023-05-01T09:34:45.513Z,98882.66
2023-05-01T09:39:48.431Z,98901.75
2023-05-01T09:44:51.378Z,98907.72
2023-05-01T09:49:56.326Z,98915.00
2023-05-01T09:55:19.066Z,98919.53
2023-05-01T10:00:22.407Z,98929.53
2023-05-01T10:05:25.435Z,98917.09
2023-05-01T10:10:28.414Z,98953.72
2023-05-01T10:15:37.871Z,98977.53
2023-05-01T10:20:40.757Z,98988.59
2023-05-01T10:25:45.048Z,98986.38
2023-05-01T10:30:49.493Z,99010.00
2023-05-01T10:35:57.643Z,99012.28
2023-05-01T10:41:00.362Z,99014.28
2023-05-01T10:46:19.342Z,99041.03
2023-05-01T10:51:26.606Z,99053.19
2023-05-01T10:56:32.974Z,99070.97
2023-05-01T11:01:40.696Z,99080.63
2023-05-01T11:07:07.813Z,99078.97
2023-05-01T11:12:12.318Z,99074.78
2023-05-01T11:17:43.870Z,99100.59
2023-05-01T11:22:47.460Z,99098.00
2023-05-01T11:27:54.913Z,99119.50
2023-05-01T11:32:57.622Z,99133.31
2023-05-01T11:38:00.673Z,99121.28
2023-05-01T11:43:06.033Z,99139.31
2023-05-01T11:48:17.899Z,99158.28
2023-05-01T11:53:20.960Z,99166.09
2023-05-01T11:58:34.020Z,99171.22
2023-05-01T12:03:43.304Z,99172.06
2023-05-01T12:08:51.236Z,99184.91
2023-05-01T12:13:54.157Z,99184.81
2023-05-01T12:18:58.332Z,99189.06
2023-05-01T12:24:11.839Z,99196.75
2023-05-01T12:29:14.485Z,99184.03
2023-05-01T12:34:17.482Z,99198.63
2023-05-01T12:39:20.564Z,99215.63
2023-05-01T12:44:30.045Z,99200.19
2023-05-01T12:49:33.282Z,99224.97
2023-05-01T12:54:38.042Z,99238.63
2023-05-01T12:59:42.871Z,99239.41
2023-05-01T13:04:47.129Z,99236.69
2023-05-01T13:09:54.561Z,99205.44
2023-05-01T13:14:57.520Z,99246.25
2023-05-01T13:20:03.166Z,99237.44
2023-05-01T13:25:25.595Z,99257.13
2023-05-01T13:30:32.946Z,99257.06
2023-05-01T13:35:36.120Z,99254.13
2023-05-01T13:40:40.748Z,99260.41
2023-05-01T13:45:43.541Z,99263.03
2023-05-01T13:50:46.266Z,99275.06
2023-05-01T13:55:48.962Z,99269.81
2023-05-01T14:00:51.805Z,99285.91
2023-05-01T14:05:54.649Z,99288.63
2023-05-01T14:10:58.807Z,99310.19
2023-05-01T14:16:03.211Z,99283.69
2023-05-01T14:21:07.075Z,99297.38
2023-05-01T14:26:11.534Z,99306.00
2023-05-01T14:31:28.599Z,99307.69
2023-05-01T14:36:32.804Z,99310.25
2023-05-01T14:41:39.040Z,99310.25
2023-05-01T14:46:47.506Z,99306.75
2023-05-01T14:51:51.795Z,99332.56
2023-05-01T14:56:54.571Z,99318.91
2023-05-01T15:01:57.493Z,99328.44
2023-05-01T15:07:00.137Z,99313.94
2023-05-01T15:12:04.574Z,99319.22
2023-05-01T15:17:09.521Z,99350.97
2023-05-01T15:22:12.203Z,99327.00
2023-05-01T15:27:14.847Z,99371.59
2023-05-01T15:32:18.298Z,99365.59
2023-05-01T15:37:21.464Z,99372.50
2023-05-01T15:42:24.272Z,99375.06
2023-05-01T15:47:27.434Z,99393.13
2023-05-01T15:52:30.067Z,99406.91
2023-05-01T15:57:34.867Z,99396.66
2023-05-01T16:02:38.409Z,99416.41
2023-05-01T16:07:41.541Z,99419.84
2023-05-01T16:12:44.433Z,99424.13
2023-05-01T16:17:48.121Z,99442.97
2023-05-01T16:22:56.368Z,99446.47
2023-05-01T16:28:04.801Z,99448.16
2023-05-01T16:33:23.504Z,99466.19
2023-05-01T16:38:27.615Z,99466.16
2023-05-01T16:43:30.391Z,99469.63
2023-05-01T16:48:35.043Z,99471.34
2023-05-01T16:53:41.464Z,99480.84
2023-05-01T16:58:44.925Z,99465.41
2023-05-01T17:03:59.853Z,99494.63
2023-05-01T17:09:02.613Z,99491.25
2023-05-01T17:14:06.048Z,99499.84
2023-05-01T17:19:10.058Z,99499.00
2023-05-01T17:24:14.203Z,99498.16
2023-05-01T17:29:17.098Z,99527.34
2023-05-01T17:34:19.740Z,99537.66
2023-05-01T17:39:22.531Z,99483.53
2023-05-01T17:44:25.227Z,99535.94
2023-05-01T17:49:27.891Z,99561.69
2023-05-01T17:54:30.550Z,99570.25
2023-05-01T17:59:33.230Z,99578.88
2023-05-01T18:04:36.821Z,99595.19
2023-05-01T18:09:40.969Z,99602.91
2023-05-01T18:14:43.708Z,99614.94
2023-05-01T18:19:46.526Z,99636.38
2023-05-01T18:24:49.526Z,99628.59
2023-05-01T18:29:53.786Z,99631.97
2023-05-01T18:34:56.819Z,99624.19
2023-05-01T18:40:00.559Z,99634.44
2023-05-01T18:45:04.230Z,99631.84
2023-05-01T18:50:08.287Z,99619.72
2023-05-01T18:55:11.831Z,99643.72
2023-05-01T19:00:17.660Z,99642.84
2023-05-01T19:05:21.371Z,99656.63
2023-05-01T19:11:10.449Z,99665.13
2023-05-01T19:16:14.021Z,99680.44
2023-05-01T19:21:16.891Z,99674.31
2023-05-01T19:26:19.684Z,99675.13
2023-05-01T19:31:22.405Z,99671.50
2023-05-01T19:36:25.280Z,99682.53
2023-05-01T19:41:28.022Z,99679.78
2023-05-01T19:46:30.886Z,99691.56
2023-05-01T19:51:34.079Z,99699.06
2023-05-01T19:56:38.648Z,99710.16
2023-05-01T20:01:41.595Z,99717.72
2023-05-01T20:06:44.469Z,99717.44
2023-05-01T20:11:47.255Z,99732.91
2023-05-01T20:16:50.899Z,99728.56
2023-05-01T20:21:54.322Z,99742.97
2023-05-01T20:26:59.507Z,99746.25
2023-05-01T20:32:02.398Z,99741.97
2023-05-01T20:37:07.018Z,99759.84
2023-05-01T20:42:09.862Z,99760.56
2023-05-01T20:47:14.379Z,99771.56
2023-05-01T20:52:17.226Z,99781.81
2023-05-01T20:57:19.925Z,99775.59
2023-05-01T21:02:22.733Z,99709.91
2023-05-01T21:07:25.492Z,99790.97
2023-05-01T21:12:28.920Z,99789.88
2023-05-01T21:17:33.627Z,99801.84
2023-05-01T21:22:37.020Z,99825.72
2023-05-01T21:27:43.396Z,99832.25
2023-05-01T21:32:46.075Z,99834.69
2023-05-01T21:37:49.176Z,99851.47
2023-05-01T21:42:54.215Z,99854.88
2023-05-01T21:47:57.808Z,99867.47
2023-05-01T21:53:00.612Z,99866.53
2023-05-01T21:58:04.122Z,99842.28
2023-05-01T22:03:08.793Z,99880.91
2023-05-01T22:08:11.742Z,99891.06
2023-05-01T22:13:14.391Z,99896.06
2023-05-01T22:18:19.913Z,99906.09
2023-05-01T22:23:22.704Z,99906.50
2023-05-01T22:28:26.400Z,99921.88
2023-05-01T22:33:29.089Z,99934.41
2023-05-01T22:38:31.786Z,99925.50
2023-05-01T22:43:34.717Z,99932.00
2023-05-01T22:48:37.347Z,99940.50
2023-05-01T22:53:40.046Z,99950.47
2023-05-01T22:58:43.002Z,99954.72
2023-05-01T23:03:45.885Z,99958.91
2023-05-01T23:08:52.839Z,99943.91
2023-05-01T23:13:55.510Z,99974.75
2023-05-01T23:18:58.341Z,99970.84
2023-05-01T23:24:01.597Z,99972.34
2023-05-01T23:29:07.105Z,99974.59
2023-05-01T23:34:09.910Z,99993.34
2023-05-01T23:39:13.030Z,99981.03
2023-05-01T23:44:15.659Z,99986.88
2023-05-01T23:49:19.282Z,99996.47
2023-05-01T23:54:21.870Z,99999.75
2023-05-01T23:59:24.626Z,99985.00
